Latest Weather Observations for Millendon (Swan Valley)

IDW60801

Issued at 6:03 am WST Friday 19 August 2022 (issued every 10 minutes, with the page automatically refreshed every 10 minutes)

About weather observations | Map of weather stations | Latest weather observations for WA | Other Formats
Station Details ID: 009281 Name: MILLENDON (SWAN VALLEY) Lat: -31.81 Lon: 116.02 Height: 15.62 m
Data from the previous 72 hours. | See also: Recent months at Millendon (Swan Valley)
Date/Time
WST
Temp
°C
App
Temp
°C
Dew
Point
°C
Rel
Hum
%
Delta-T
°C
Wind Press
QNH
hPa
Press
MSL
hPa
Rain since
9am
mm
Dir  Spd
km/h
Gust
km/h
Spd
kts
Gust
kts
19/06:00am 9.4 8.2 8.2 92 0.6 NNE 4 7 2 4 1029.1 1029.1 0.2
19/05:30am 9.3 8.2 8.4 94 0.4 N 4 6 2 3 1029.0 1029.0 0.2
19/05:00am 9.2 8.8 8.4 95 0.4 CALM 0 0 0 0 1028.8 1028.8 0.2
19/04:30am 9.3 9.0 8.7 96 0.3 CALM 0 0 0 0 1028.7 1028.7 0.2
19/04:00am 9.3 8.6 8.7 96 0.3 N 2 2 1 1 1028.5 1028.5 0.2
19/03:30am 9.1 8.4 8.5 96 0.3 NNE 2 4 1 2 1028.6 1028.6 0.2
19/03:00am 8.8 8.1 8.4 97 0.2 NNW 2 4 1 2 1028.4 1028.4 0.2
19/02:30am 8.3 7.4 7.7 96 0.3 N 2 7 1 4 1028.4 1028.4 0.2
19/02:00am 8.5 8.0 7.9 96 0.3 CALM 0 0 0 0 1028.6 1028.6 0.2
19/01:30am 8.6 8.1 8.0 96 0.3 CALM 0 0 0 0 1028.7 1028.7 0.2
19/01:00am 8.5 8.0 7.7 95 0.4 CALM 0 0 0 0 1028.6 1028.6 0.2
19/12:30am 8.5 8.0 7.7 95 0.4 CALM 0 0 0 0 1028.6 1028.6 0.2
19/12:00am 8.7 7.8 7.9 95 0.4 NW 2 4 1 2 1028.9 1028.9 0.2
 
Date/Time
WST
Temp
°C
App
Temp
°C
Dew
Point
°C
Rel
Hum
%
Delta-T
°C
Wind Press
QNH
hPa
Press
MSL
hPa
Rain since
9am
mm
Dir  Spd
km/h
Gust
km/h
Spd
kts
Gust
kts
18/11:30pm 8.9 8.5 8.3 96 0.3 CALM 0 2 0 1 1029.0 1029.0 0.2
18/11:00pm 8.7 7.5 8.1 96 0.3 N 4 6 2 3 1029.0 1029.0 0.2
18/10:30pm 8.6 7.4 8.2 97 0.2 N 4 6 2 3 1029.1 1029.1 0.2
18/10:00pm 7.8 6.8 7.2 96 0.3 N 2 7 1 4 1029.1 1029.1 0.2
18/09:30pm 8.4 7.8 7.6 95 0.4 CALM 0 0 0 0 1029.0 1029.0 0.2
18/09:00pm 8.7 8.2 7.9 95 0.4 CALM 0 0 0 0 1029.0 1029.0 0.2
18/08:30pm 8.7 8.2 7.8 94 0.4 CALM 0 2 0 1 1028.9 1028.9 0.2
18/08:00pm 8.9 8.0 7.8 93 0.5 ENE 2 4 1 2 1028.9 1028.9 0.2
18/07:30pm 9.5 8.7 8.1 91 0.7 ENE 2 4 1 2 1028.7 1028.7 0.2
18/07:00pm 10.5 10.2 8.8 89 0.8 CALM 0 0 0 0 1028.4 1028.4 0.2
18/06:30pm 11.7 11.6 9.3 85 1.2 CALM 0 0 0 0 1028.2 1028.2 0.2
18/06:00pm 13.6 12.6 8.7 72 2.4 WSW 4 4 2 2 1027.9 1027.9 0.2
18/05:30pm 15.5 13.9 8.0 61 3.8 WSW 6 9 3 5 1027.6 1027.6 0.2
18/05:00pm 16.2 14.0 7.7 57 4.2 WSW 9 15 5 8 1027.5 1027.5 0.2
18/04:30pm 16.7 14.6 8.4 58 4.2 SW 9 13 5 7 1027.4 1027.4 0.2
18/04:00pm 17.1 14.5 7.7 54 4.7 WSW 11 17 6 9 1027.5 1027.5 0.2
18/03:30pm 17.1 14.7 7.2 52 4.9 S 9 15 5 8 1027.3 1027.3 0.2
18/03:00pm 17.2 15.3 7.5 53 4.8 SSW 7 11 4 6 1027.4 1027.4 0.2
18/02:30pm 17.6 15.9 7.6 52 5.1 WSW 6 11 3 6 1027.1 1027.1 0.2
18/02:00pm 17.2 15.3 6.7 50 5.2 S 6 13 3 7 1027.1 1027.1 0.2
18/01:30pm 16.9 15.1 7.3 53 4.8 SSW 6 11 3 6 1027.2 1027.2 0.2
18/01:00pm 17.0 15.1 6.5 50 5.1 WNW 6 9 3 5 1027.5 1027.5 0.2
18/12:30pm 16.7 15.5 8.1 57 4.4 NW 4 7 2 4 1027.8 1027.8 0.2
18/12:00pm 16.7 15.5 9.4 62 3.8 NW 6 9 3 5 1028.1 1028.1 0.2
18/11:30am 15.6 13.8 7.1 57 4.2 N 6 11 3 6 1028.3 1028.3 0.2
18/11:00am 15.2 13.8 8.9 66 3.2 NNE 6 9 3 5 1028.4 1028.4 0.0
18/10:30am 13.7 12.7 9.0 73 2.4 N 4 6 2 3 1028.5 1028.5 0.0
18/10:00am 12.2 12.0 9.0 81 1.6 CALM 0 0 0 0 1028.4 1028.4 0.0
18/09:30am 10.4 9.8 8.8 90 0.8 NNW 2 9 1 5 1028.4 1028.4 0.0
18/09:00am 8.4 7.2 8.1 98 0.1 NNW 4 6 2 3 1028.3 1028.3 9.2
18/08:30am 7.4 6.8 7.3 99 0.0 CALM 0 4 0 2 1028.2 1028.2 9.2
18/08:00am 5.8 4.8 5.7 99 0.0 CALM 0 0 0 0 1027.8 1027.8 9.2
18/07:30am 3.4 1.5 3.1 98 0.1 N 2 4 1 2 1027.1 1027.1 9.2
18/07:00am 2.9 1.3 2.6 98 0.1 CALM 0 4 0 2 1026.7 1026.7 9.2
18/06:30am 2.5 0.9 2.2 98 0.1 CALM 0 4 0 2 1026.1 1026.1 9.2
18/06:00am 2.9 1.3 2.6 98 0.1 CALM 0 0 0 0 1025.7 1025.7 9.2
18/05:30am 3.2 1.7 2.9 98 0.1 CALM 0 0 0 0 1025.6 1025.6 9.2
18/05:00am 3.3 1.8 3.0 98 0.1 CALM 0 0 0 0 1025.2 1025.2 9.2
18/04:30am 3.3 1.8 3.0 98 0.1 CALM 0 0 0 0 1024.7 1024.7 9.2
18/04:00am 3.3 1.8 3.0 98 0.1 CALM 0 0 0 0 1024.5 1024.5 9.2
18/03:30am 3.8 2.4 3.5 98 0.1 CALM 0 0 0 0 1024.6 1024.6 9.2
18/03:00am 3.7 2.3 3.4 98 0.1 CALM 0 0 0 0 1024.3 1024.3 9.2
18/02:30am 3.9 2.1 3.6 98 0.1 NNW 2 4 1 2 1024.1 1024.1 9.2
18/02:00am 4.1 2.7 3.7 97 0.2 CALM 0 4 0 2 1024.0 1024.0 9.2
18/01:30am 4.7 3.4 4.3 97 0.2 CALM 0 0 0 0 1023.8 1023.8 9.2
18/01:00am 4.9 3.3 4.5 97 0.2 ENE 2 4 1 2 1023.4 1023.4 9.2
18/12:30am 5.1 3.9 4.7 97 0.2 CALM 0 0 0 0 1023.0 1023.0 9.2
18/12:00am 5.6 4.5 5.2 97 0.2 CALM 0 0 0 0 1022.6 1022.6 9.2
 
Date/Time
WST
Temp
°C
App
Temp
°C
Dew
Point
°C
Rel
Hum
%
Delta-T
°C
Wind Press
QNH
hPa
Press
MSL
hPa
Rain since
9am
mm
Dir  Spd
km/h
Gust
km/h
Spd
kts
Gust
kts
17/11:30pm 5.7 4.6 5.3 97 0.2 CALM 0 2 0 1 1022.6 1022.6 9.2
17/11:00pm 6.2 5.2 5.8 97 0.2 CALM 0 0 0 0 1022.3 1022.3 9.2
17/10:30pm 6.8 6.0 6.4 97 0.2 CALM 0 2 0 1 1021.8 1021.8 9.2
17/10:00pm 7.3 5.8 6.9 97 0.2 E 4 6 2 3 1021.3 1021.3 9.2
17/09:30pm 7.9 6.9 7.5 97 0.2 SSW 2 6 1 3 1020.8 1020.8 9.2
17/09:00pm 7.8 7.2 7.2 96 0.3 CALM 0 2 0 1 1019.8 1019.8 9.2
17/08:30pm 8.6 7.4 8.0 96 0.3 SE 4 7 2 4 1019.2 1019.2 9.2
17/08:00pm 8.9 8.1 8.1 95 0.4 S 2 6 1 3 1018.7 1018.7 9.0
17/07:30pm 9.4 8.3 8.5 94 0.4 S 4 7 2 4 1017.8 1017.8 9.0
17/07:00pm 9.8 8.4 9.0 95 0.4 S 6 9 3 5 1017.1 1017.1 9.0
17/06:30pm 10.1 9.2 9.3 95 0.4 SSE 4 9 2 5 1016.0 1016.0 8.8
17/06:00pm 10.5 10.1 9.6 94 0.5 N 2 11 1 6 1015.0 1015.0 6.6
17/05:30pm 10.5 9.6 9.4 93 0.5 NNE 4 7 2 4 1014.1 1014.1 5.8
17/05:00pm 10.5 9.6 9.4 93 0.5 NNE 4 4 2 2 1013.5 1013.5 4.8
17/04:30pm 10.5 9.6 9.4 93 0.5 SE 4 6 2 3 1013.3 1013.3 4.8
17/04:00pm 10.7 10.1 9.1 90 0.8 E 2 4 1 2 1013.1 1013.1 4.6
17/03:30pm 11.4 9.9 9.3 87 1.1 S 7 15 4 8 1012.4 1012.4 3.6
17/03:00pm 11.5 10.4 9.8 89 0.9 SSE 6 11 3 6 1011.9 1011.9 3.6
17/02:30pm 11.6 9.7 9.2 85 1.2 SSW 9 15 5 8 1011.9 1011.9 3.0
17/02:00pm 12.8 11.8 10.3 85 1.3 NNW 6 11 3 6 1011.5 1011.5 0.8
17/01:30pm 13.4 12.2 10.2 81 1.7 NW 7 11 4 6 1010.9 1010.9 0.8
17/01:00pm 15.7 13.4 8.9 64 3.5 SW 11 20 6 11 1011.0 1011.0 0.4
17/12:30pm 15.7 12.9 8.7 63 3.6 SW 13 20 7 11 1011.8 1011.8 0.4
17/12:00pm 15.8 11.3 6.8 55 4.4 WSW 20 30 11 16 1011.9 1011.9 0.4
17/11:30am 16.7 12.6 7.9 56 4.4 WSW 19 32 10 17 1012.1 1012.1 0.4
17/11:00am 15.5 9.8 6.5 55 4.4 WSW 26 43 14 23 1012.3 1012.3 0.4
17/10:30am 15.7 9.6 6.7 55 4.4 W 28 46 15 25 1012.5 1012.5 0.4
17/10:00am 14.7 12.0 7.5 62 3.6 WSW 11 19 6 10 1012.4 1012.4 0.4
17/09:30am 12.2 6.8 8.1 76 2.0 WSW 26 50 14 27 1013.3 1013.3 0.4
17/09:16am 11.9 6.9 8.0 77 1.9 W 24 65 13 35 1013.1 1013.1 0.4
17/09:15am 12.1 7.6 8.4 78 1.8 W 22 65 12 35 1013.0 1013.0 0.4
17/09:00am 13.4 10.1 8.0 70 2.7 WSW 15 24 8 13 1011.9 1011.9 15.0
17/08:30am 12.4 8.2 7.3 71 2.5 WSW 19 30 10 16 1011.8 1011.8 15.0
17/08:00am 11.2 10.2 8.9 86 1.1 W 4 9 2 5 1011.1 1011.1 15.0
17/07:30am 10.6 8.5 8.2 85 1.2 WSW 9 17 5 9 1010.9 1010.9 14.8
17/07:00am 10.2 6.2 8.1 87 1.0 W 19 52 10 28 1010.7 1010.7 14.8
17/06:58am 10.6 7.4 8.4 86 1.1 W 15 52 8 28 1010.8 1010.8 14.6
17/06:30am 10.1 8.3 7.9 86 1.1 WSW 7 17 4 9 1009.9 1009.9 13.6
17/06:00am 10.3 4.2 8.2 87 1.0 WSW 30 67 16 36 1009.6 1009.6 13.6
17/05:52am 10.6 7.3 8.0 84 1.3 NW 15 67 8 36 1009.8 1009.8 13.6
17/05:30am 10.9 8.8 6.5 74 2.1 WSW 7 9 4 5 1008.7 1008.7 12.4
17/05:00am 11.2 6.7 8.6 84 1.3 WSW 22 39 12 21 1008.9 1008.9 12.4
17/04:47am 11.3 9.2 9.6 89 0.9 NW 11 41 6 22 1008.7 1008.7 12.2
17/04:30am 10.5 9.1 8.8 89 0.8 WNW 6 13 3 7 1008.0 1008.0 12.2
17/04:00am 10.9 9.4 9.3 90 0.8 N 7 13 4 7 1007.4 1007.4 12.2
17/03:30am 11.7 9.9 9.4 86 1.2 WNW 9 20 5 11 1007.9 1007.9 11.4
17/03:00am 11.4 8.7 9.0 85 1.2 NW 13 24 7 13 1007.3 1007.3 11.0
17/02:40am 11.3 7.7 9.7 90 0.8 N 19 50 10 27 1007.7 1007.7 11.0
17/02:30am 11.5 10.0 10.6 94 0.5 NNE 9 15 5 8 1006.9 1006.9 9.8
17/02:00am 11.3 9.8 10.4 94 0.5 NNE 9 13 5 7 1007.4 1007.4 9.8
17/01:30am 11.7 10.2 10.6 93 0.6 N 9 13 5 7 1007.5 1007.5 9.8
17/01:00am 11.6 9.0 10.7 94 0.5 N 15 30 8 16 1007.5 1007.5 9.2
17/12:30am 11.1 8.9 9.5 90 0.8 NNE 11 15 6 8 1007.4 1007.4 5.6
17/12:00am 11.7 10.5 10.3 91 0.7 NNW 7 11 4 6 1008.4 1008.4 5.6
 
Date/Time
WST
Temp
°C
App
Temp
°C
Dew
Point
°C
Rel
Hum
%
Delta-T
°C
Wind Press
QNH
hPa
Press
MSL
hPa
Rain since
9am
mm
Dir  Spd
km/h
Gust
km/h
Spd
kts
Gust
kts
16/11:30pm 11.6 10.6 10.2 91 0.7 N 6 9 3 5 1008.7 1008.7 3.8
16/11:00pm 12.2 10.2 10.1 87 1.1 N 11 17 6 9 1008.4 1008.4 3.6
16/10:30pm 12.0 9.2 9.9 87 1.1 N 15 24 8 13 1008.3 1008.3 3.6
16/10:00pm 12.3 9.7 9.5 83 1.4 N 13 22 7 12 1008.5 1008.5 3.6
16/09:30pm 11.9 10.5 9.5 85 1.2 NNE 7 11 4 6 1008.7 1008.7 3.6
16/09:00pm 12.7 10.5 9.2 79 1.8 NNW 11 19 6 10 1008.6 1008.6 3.6
16/08:30pm 12.4 10.9 9.2 81 1.6 N 7 15 4 8 1008.7 1008.7 3.4
16/08:00pm 12.7 11.3 9.0 78 1.9 N 6 9 3 5 1008.4 1008.4 3.4
16/07:30pm 13.1 11.7 9.7 80 1.7 NNW 7 13 4 7 1008.6 1008.6 3.4
16/07:00pm 13.9 12.3 10.3 79 1.9 N 9 19 5 10 1008.3 1008.3 3.4
16/06:30pm 15.5 13.1 8.7 64 3.5 NW 11 19 6 10 1008.1 1008.1 3.0
16/06:00pm 15.9 12.6 7.9 59 4.0 WNW 15 22 8 12 1007.9 1007.9 3.0
16/05:30pm 16.2 13.1 8.9 62 3.7 WNW 15 26 8 14 1007.7 1007.7 3.0
16/05:00pm 16.4 12.2 8.4 59 4.1 WNW 20 32 11 17 1007.4 1007.4 3.0
16/04:30pm 17.8 14.2 9.9 60 4.2 W 19 32 10 17 1007.1 1007.1 3.0
16/04:00pm 18.1 13.5 9.7 58 4.4 WNW 24 35 13 19 1006.8 1006.8 3.0
16/03:30pm 18.3 15.0 10.9 62 4.0 WNW 19 30 10 16 1006.7 1006.7 3.0
16/03:00pm 17.5 13.3 11.1 66 3.5 WSW 24 35 13 19 1006.3 1006.3 3.0
16/02:30pm 18.4 14.8 10.5 60 4.2 W 20 35 11 19 1006.2 1006.2 3.0
16/02:00pm 17.4 14.2 11.9 70 3.0 W 20 33 11 18 1006.1 1006.1 3.0
16/01:41pm 17.8 14.5 10.9 64 3.7 W 19 43 10 23 1005.9 1005.9 3.0
16/01:30pm 17.9 17.2 14.2 79 2.1 WNW 11 17 6 9 1006.0 1006.0 3.0
16/01:00pm 16.9 16.9 15.2 90 1.0 NNW 9 13 5 7 1006.1 1006.1 3.0
16/12:30pm 15.0 14.0 13.4 90 0.9 WNW 11 17 6 9 1006.3 1006.3 2.8
16/12:00pm 14.8 13.0 13.2 90 0.9 W 15 30 8 16 1006.5 1006.5 2.6
16/11:30am 15.6 12.5 13.3 86 1.3 WSW 22 37 12 20 1006.7 1006.7 1.6
16/11:00am 16.1 16.3 14.3 89 1.0 NNW 6 9 3 5 1006.5 1006.5 1.2
16/10:30am 15.3 14.5 14.0 92 0.7 W 11 19 6 10 1006.5 1006.5 1.2
16/10:00am 15.1 12.4 13.5 90 0.9 W 20 32 11 17 1006.5 1006.5 1.2
16/09:30am 16.4 14.7 14.8 90 0.9 WSW 17 22 9 12 1006.3 1006.3 0.2
16/09:00am 16.6 16.7 15.5 93 0.6 NNW 9 33 5 18 1005.7 1005.7 21.8
16/08:30am 16.7 17.5 15.9 95 0.5 N 6 9 3 5 1005.1 1005.1 21.8
16/08:00am 16.4 17.6 15.8 96 0.4 N 4 6 2 3 1004.6 1004.6 21.8
16/07:30am 16.3 17.0 15.7 96 0.4 NNW 6 6 3 3 1004.4 1004.4 21.8
16/07:00am 16.5 17.2 15.7 95 0.5 NNW 6 9 3 5 1004.4 1004.4 21.8
16/06:30am 16.8 17.1 16.0 95 0.5 NNW 9 17 5 9 1003.9 1003.9 21.2

Other formats

Comma delimited format used in spreadsheet applications
http://www.bom.gov.au/fwo/IDW60801/IDW60801.94795.axf

JavaScript Object Notation format (JSON) in row-major order
http://www.bom.gov.au/fwo/IDW60801/IDW60801.94795.json

Data quality

Most of these data are generated automatically and are frequently updated. Quality checks on data are not normally performed. It is possible for incorrect values to appear. Refer to information at About Latest Weather Observations and please check the disclaimer before using these data.